sensor_id;sensor_type;location;lat;lon;timestamp;P1;durP1;ratioP1;P2;durP2;ratioP2
69910;SDS011;63555;49.920;17.868;2023-02-27T00:00:56;9.55;;;3.75;;
69910;SDS011;63555;49.920;17.868;2023-02-27T00:05:58;9.13;;;2.80;;
69910;SDS011;63555;49.920;17.868;2023-02-27T00:10:58;10.50;;;2.80;;
69910;SDS011;63555;49.920;17.868;2023-02-27T00:15:59;9.80;;;3.23;;
69910;SDS011;63555;49.920;17.868;2023-02-27T00:20:59;12.93;;;3.97;;
69910;SDS011;63555;49.920;17.868;2023-02-27T00:25:59;14.23;;;3.83;;
69910;SDS011;63555;49.920;17.868;2023-02-27T00:31:00;12.57;;;4.10;;
69910;SDS011;63555;49.920;17.868;2023-02-27T00:36:00;12.40;;;3.40;;
69910;SDS011;63555;49.920;17.868;2023-02-27T00:41:01;12.57;;;3.33;;
69910;SDS011;63555;49.920;17.868;2023-02-27T00:46:01;11.37;;;3.70;;
69910;SDS011;63555;49.920;17.868;2023-02-27T00:51:02;12.03;;;3.13;;
69910;SDS011;63555;49.920;17.868;2023-02-27T00:56:03;14.07;;;3.83;;
69910;SDS011;63555;49.920;17.868;2023-02-27T01:01:03;11.77;;;3.90;;
69910;SDS011;63555;49.920;17.868;2023-02-27T01:06:04;13.90;;;3.13;;
69910;SDS011;63555;49.920;17.868;2023-02-27T01:11:04;12.93;;;3.58;;
69910;SDS011;63555;49.920;17.868;2023-02-27T01:16:05;6.13;;;2.57;;
69910;SDS011;63555;49.920;17.868;2023-02-27T01:21:07;5.57;;;2.40;;
69910;SDS011;63555;49.920;17.868;2023-02-27T01:26:07;10.17;;;2.77;;
69910;SDS011;63555;49.920;17.868;2023-02-27T01:31:08;11.77;;;2.87;;
69910;SDS011;63555;49.920;17.868;2023-02-27T01:36:08;7.07;;;2.53;;
69910;SDS011;63555;49.920;17.868;2023-02-27T01:41:09;10.77;;;3.30;;
69910;SDS011;63555;49.920;17.868;2023-02-27T01:46:10;10.87;;;3.27;;
69910;SDS011;63555;49.920;17.868;2023-02-27T01:51:12;10.33;;;3.33;;
69910;SDS011;63555;49.920;17.868;2023-02-27T01:56:20;7.40;;;2.57;;
69910;SDS011;63555;49.920;17.868;2023-02-27T02:01:23;15.20;;;4.50;;
69910;SDS011;63555;49.920;17.868;2023-02-27T02:06:24;8.07;;;3.33;;
69910;SDS011;63555;49.920;17.868;2023-02-27T02:11:26;13.98;;;4.15;;
69910;SDS011;63555;49.920;17.868;2023-02-27T02:21:43;9.47;;;4.07;;
69910;SDS011;63555;49.920;17.868;2023-02-27T02:27:14;14.32;;;4.07;;
69910;SDS011;63555;49.920;17.868;2023-02-27T02:32:53;12.43;;;3.33;;
69910;SDS011;63555;49.920;17.868;2023-02-27T02:43:16;9.38;;;3.00;;
69910;SDS011;63555;49.920;17.868;2023-02-27T02:53:41;10.05;;;2.63;;
69910;SDS011;63555;49.920;17.868;2023-02-27T03:03:55;9.93;;;2.85;;
69910;SDS011;63555;49.920;17.868;2023-02-27T03:09:11;7.10;;;2.47;;
69910;SDS011;63555;49.920;17.868;2023-02-27T03:14:23;9.20;;;3.07;;
69910;SDS011;63555;49.920;17.868;2023-02-27T03:19:32;6.43;;;2.63;;
69910;SDS011;63555;49.920;17.868;2023-02-27T03:24:47;8.47;;;2.33;;
69910;SDS011;63555;49.920;17.868;2023-02-27T03:35:40;9.45;;;2.95;;
69910;SDS011;63555;49.920;17.868;2023-02-27T03:40:48;8.30;;;2.23;;
69910;SDS011;63555;49.920;17.868;2023-02-27T03:51:06;6.50;;;1.70;;
69910;SDS011;63555;49.920;17.868;2023-02-27T03:56:07;5.95;;;2.13;;
69910;SDS011;63555;49.920;17.868;2023-02-27T04:01:10;12.03;;;2.33;;
69910;SDS011;63555;49.920;17.868;2023-02-27T04:06:10;9.02;;;1.67;;
69910;SDS011;63555;49.920;17.868;2023-02-27T04:11:40;6.67;;;1.60;;
69910;SDS011;63555;49.920;17.868;2023-02-27T04:27:20;11.93;;;2.30;;
69910;SDS011;63555;49.920;17.868;2023-02-27T04:32:32;4.75;;;1.25;;
69910;SDS011;63555;49.920;17.868;2023-02-27T04:37:45;5.87;;;1.83;;
69910;SDS011;63555;49.920;17.868;2023-02-27T04:42:51;4.55;;;0.98;;
69910;SDS011;63555;49.920;17.868;2023-02-27T04:48:01;5.05;;;1.05;;
69910;SDS011;63555;49.920;17.868;2023-02-27T04:53:08;6.53;;;1.13;;
69910;SDS011;63555;49.920;17.868;2023-02-27T04:58:17;3.67;;;1.30;;
69910;SDS011;63555;49.920;17.868;2023-02-27T05:03:30;7.33;;;0.87;;
69910;SDS011;63555;49.920;17.868;2023-02-27T05:08:44;6.07;;;1.17;;
69910;SDS011;63555;49.920;17.868;2023-02-27T05:14:00;3.05;;;0.93;;
69910;SDS011;63555;49.920;17.868;2023-02-27T05:19:05;5.95;;;1.27;;
69910;SDS011;63555;49.920;17.868;2023-02-27T05:29:35;4.43;;;1.20;;
69910;SDS011;63555;49.920;17.868;2023-02-27T05:34:41;4.80;;;1.25;;
69910;SDS011;63555;49.920;17.868;2023-02-27T05:39:48;4.80;;;1.52;;
69910;SDS011;63555;49.920;17.868;2023-02-27T05:44:53;4.10;;;1.23;;
69910;SDS011;63555;49.920;17.868;2023-02-27T05:50:04;5.78;;;1.98;;
69910;SDS011;63555;49.920;17.868;2023-02-27T05:55:29;5.83;;;1.50;;
69910;SDS011;63555;49.920;17.868;2023-02-27T06:00:48;4.80;;;1.65;;
69910;SDS011;63555;49.920;17.868;2023-02-27T06:05:52;7.38;;;1.80;;
69910;SDS011;63555;49.920;17.868;2023-02-27T06:10:56;6.28;;;1.55;;
69910;SDS011;63555;49.920;17.868;2023-02-27T06:15:56;8.57;;;2.17;;
69910;SDS011;63555;49.920;17.868;2023-02-27T06:20:56;4.80;;;1.67;;
69910;SDS011;63555;49.920;17.868;2023-02-27T06:25:57;5.30;;;1.33;;
69910;SDS011;63555;49.920;17.868;2023-02-27T06:30:57;6.53;;;2.40;;
69910;SDS011;63555;49.920;17.868;2023-02-27T06:35:58;8.37;;;2.97;;
69910;SDS011;63555;49.920;17.868;2023-02-27T06:40:58;10.67;;;2.50;;
69910;SDS011;63555;49.920;17.868;2023-02-27T06:45:58;7.00;;;1.93;;
69910;SDS011;63555;49.920;17.868;2023-02-27T06:50:59;7.63;;;2.38;;
69910;SDS011;63555;49.920;17.868;2023-02-27T06:56:00;9.97;;;2.60;;
69910;SDS011;63555;49.920;17.868;2023-02-27T07:01:00;8.97;;;2.43;;
69910;SDS011;63555;49.920;17.868;2023-02-27T07:06:01;9.10;;;2.60;;
69910;SDS011;63555;49.920;17.868;2023-02-27T07:11:01;9.32;;;2.03;;
69910;SDS011;63555;49.920;17.868;2023-02-27T07:16:03;5.53;;;1.80;;
69910;SDS011;63555;49.920;17.868;2023-02-27T07:21:04;9.10;;;2.47;;
69910;SDS011;63555;49.920;17.868;2023-02-27T07:26:04;8.60;;;2.77;;
69910;SDS011;63555;49.920;17.868;2023-02-27T07:31:05;8.40;;;1.80;;
69910;SDS011;63555;49.920;17.868;2023-02-27T07:36:05;9.27;;;2.10;;
69910;SDS011;63555;49.920;17.868;2023-02-27T07:41:06;9.40;;;2.17;;
69910;SDS011;63555;49.920;17.868;2023-02-27T07:46:06;6.33;;;2.00;;
69910;SDS011;63555;49.920;17.868;2023-02-27T07:51:07;5.50;;;1.80;;
69910;SDS011;63555;49.920;17.868;2023-02-27T07:56:07;7.97;;;2.20;;
69910;SDS011;63555;49.920;17.868;2023-02-27T08:01:08;8.17;;;2.37;;
69910;SDS011;63555;49.920;17.868;2023-02-27T08:06:08;5.53;;;1.90;;
69910;SDS011;63555;49.920;17.868;2023-02-27T08:11:09;8.33;;;2.20;;
69910;SDS011;63555;49.920;17.868;2023-02-27T08:16:09;9.90;;;2.50;;
69910;SDS011;63555;49.920;17.868;2023-02-27T08:21:10;10.83;;;2.93;;
69910;SDS011;63555;49.920;17.868;2023-02-27T08:26:10;9.07;;;2.93;;
69910;SDS011;63555;49.920;17.868;2023-02-27T08:31:11;9.33;;;3.47;;
69910;SDS011;63555;49.920;17.868;2023-02-27T08:36:12;9.30;;;3.40;;
69910;SDS011;63555;49.920;17.868;2023-02-27T08:41:12;12.23;;;3.60;;
69910;SDS011;63555;49.920;17.868;2023-02-27T08:46:14;10.05;;;3.03;;
69910;SDS011;63555;49.920;17.868;2023-02-27T08:51:14;10.17;;;2.80;;
69910;SDS011;63555;49.920;17.868;2023-02-27T08:56:14;10.83;;;3.10;;
69910;SDS011;63555;49.920;17.868;2023-02-27T09:01:15;10.07;;;2.93;;
69910;SDS011;63555;49.920;17.868;2023-02-27T09:06:15;14.20;;;3.43;;
69910;SDS011;63555;49.920;17.868;2023-02-27T09:11:15;11.67;;;3.40;;
69910;SDS011;63555;49.920;17.868;2023-02-27T09:16:16;8.70;;;3.33;;
69910;SDS011;63555;49.920;17.868;2023-02-27T09:21:17;15.45;;;4.40;;
69910;SDS011;63555;49.920;17.868;2023-02-27T09:26:19;14.25;;;5.00;;
69910;SDS011;63555;49.920;17.868;2023-02-27T09:31:19;12.70;;;5.40;;
69910;SDS011;63555;49.920;17.868;2023-02-27T09:36:20;13.90;;;5.50;;
69910;SDS011;63555;49.920;17.868;2023-02-27T09:46:36;12.48;;;4.90;;
69910;SDS011;63555;49.920;17.868;2023-02-27T09:51:36;12.97;;;4.57;;
69910;SDS011;63555;49.920;17.868;2023-02-27T09:56:51;10.03;;;4.83;;
69910;SDS011;63555;49.920;17.868;2023-02-27T10:07:51;9.93;;;5.00;;
69910;SDS011;63555;49.920;17.868;2023-02-27T10:18:15;10.82;;;4.28;;
69910;SDS011;63555;49.920;17.868;2023-02-27T10:23:21;9.07;;;4.40;;
69910;SDS011;63555;49.920;17.868;2023-02-27T10:28:30;10.77;;;4.30;;
69910;SDS011;63555;49.920;17.868;2023-02-27T10:33:35;10.60;;;4.50;;
69910;SDS011;63555;49.920;17.868;2023-02-27T10:38:38;8.93;;;5.03;;
69910;SDS011;63555;49.920;17.868;2023-02-27T10:43:45;10.50;;;4.93;;
69910;SDS011;63555;49.920;17.868;2023-02-27T10:48:45;10.73;;;5.43;;
69910;SDS011;63555;49.920;17.868;2023-02-27T10:53:46;12.23;;;5.70;;
69910;SDS011;63555;49.920;17.868;2023-02-27T10:58:46;13.87;;;5.60;;
69910;SDS011;63555;49.920;17.868;2023-02-27T11:04:02;10.73;;;5.15;;
69910;SDS011;63555;49.920;17.868;2023-02-27T11:19:25;16.33;;;5.38;;
69910;SDS011;63555;49.920;17.868;2023-02-27T11:24:28;14.05;;;4.70;;
69910;SDS011;63555;49.920;17.868;2023-02-27T11:29:30;9.97;;;4.10;;
69910;SDS011;63555;49.920;17.868;2023-02-27T11:34:33;7.65;;;2.80;;
69910;SDS011;63555;49.920;17.868;2023-02-27T11:39:38;12.03;;;2.87;;
69910;SDS011;63555;49.920;17.868;2023-02-27T11:45:07;5.25;;;2.15;;
69910;SDS011;63555;49.920;17.868;2023-02-27T11:55:39;8.13;;;3.50;;
69910;SDS011;63555;49.920;17.868;2023-02-27T12:00:43;7.05;;;2.67;;
69910;SDS011;63555;49.920;17.868;2023-02-27T12:05:49;8.23;;;2.20;;
69910;SDS011;63555;49.920;17.868;2023-02-27T12:16:15;4.70;;;1.95;;
69910;SDS011;63555;49.920;17.868;2023-02-27T12:21:23;6.60;;;2.40;;
69910;SDS011;63555;49.920;17.868;2023-02-27T12:26:35;7.30;;;3.00;;
69910;SDS011;63555;49.920;17.868;2023-02-27T12:32:22;8.10;;;3.93;;
69910;SDS011;63555;49.920;17.868;2023-02-27T12:37:12;7.43;;;3.80;;
69910;SDS011;63555;49.920;17.868;2023-02-27T12:47:31;14.73;;;6.37;;
69910;SDS011;63555;49.920;17.868;2023-02-27T13:03:43;10.10;;;5.07;;
69910;SDS011;63555;49.920;17.868;2023-02-27T13:08:50;3.60;;;1.75;;
69910;SDS011;63555;49.920;17.868;2023-02-27T13:14:15;4.83;;;1.90;;
69910;SDS011;63555;49.920;17.868;2023-02-27T13:19:17;5.63;;;2.05;;
69910;SDS011;63555;49.920;17.868;2023-02-27T13:24:24;4.23;;;1.90;;
69910;SDS011;63555;49.920;17.868;2023-02-27T13:29:34;7.50;;;1.92;;
69910;SDS011;63555;49.920;17.868;2023-02-27T13:34:48;5.70;;;2.25;;
69910;SDS011;63555;49.920;17.868;2023-02-27T13:39:53;5.90;;;2.07;;
69910;SDS011;63555;49.920;17.868;2023-02-27T13:44:56;9.27;;;2.70;;
69910;SDS011;63555;49.920;17.868;2023-02-27T13:49:58;5.63;;;2.40;;
69910;SDS011;63555;49.920;17.868;2023-02-27T13:55:23;6.72;;;2.88;;
69910;SDS011;63555;49.920;17.868;2023-02-27T14:00:29;10.82;;;2.72;;
69910;SDS011;63555;49.920;17.868;2023-02-27T14:05:32;6.03;;;2.40;;
69910;SDS011;63555;49.920;17.868;2023-02-27T14:10:35;5.40;;;1.60;;
69910;SDS011;63555;49.920;17.868;2023-02-27T14:15:48;3.67;;;1.63;;
69910;SDS011;63555;49.920;17.868;2023-02-27T14:20:51;4.35;;;1.83;;
69910;SDS011;63555;49.920;17.868;2023-02-27T14:25:52;5.00;;;1.97;;
69910;SDS011;63555;49.920;17.868;2023-02-27T14:30:55;5.93;;;2.20;;
69910;SDS011;63555;49.920;17.868;2023-02-27T14:36:03;6.10;;;2.33;;
69910;SDS011;63555;49.920;17.868;2023-02-27T14:41:20;6.80;;;2.20;;
69910;SDS011;63555;49.920;17.868;2023-02-27T14:46:40;5.83;;;2.20;;
69910;SDS011;63555;49.920;17.868;2023-02-27T14:51:40;4.50;;;2.07;;
69910;SDS011;63555;49.920;17.868;2023-02-27T14:56:51;5.93;;;2.10;;
69910;SDS011;63555;49.920;17.868;2023-02-27T15:07:18;7.13;;;2.60;;
69910;SDS011;63555;49.920;17.868;2023-02-27T15:12:25;8.25;;;2.28;;
69910;SDS011;63555;49.920;17.868;2023-02-27T15:17:34;9.10;;;2.70;;
69910;SDS011;63555;49.920;17.868;2023-02-27T15:22:39;8.23;;;2.53;;
69910;SDS011;63555;49.920;17.868;2023-02-27T15:27:40;9.30;;;3.17;;
69910;SDS011;63555;49.920;17.868;2023-02-27T15:32:41;5.85;;;2.42;;
69910;SDS011;63555;49.920;17.868;2023-02-27T15:37:44;6.43;;;2.77;;
69910;SDS011;63555;49.920;17.868;2023-02-27T15:42:53;8.90;;;3.30;;
69910;SDS011;63555;49.920;17.868;2023-02-27T15:47:54;8.07;;;2.72;;
69910;SDS011;63555;49.920;17.868;2023-02-27T15:52:59;9.23;;;3.55;;
69910;SDS011;63555;49.920;17.868;2023-02-27T15:58:16;10.80;;;3.53;;
69910;SDS011;63555;49.920;17.868;2023-02-27T16:03:57;9.83;;;3.83;;
69910;SDS011;63555;49.920;17.868;2023-02-27T16:09:03;12.15;;;3.75;;
69910;SDS011;63555;49.920;17.868;2023-02-27T16:14:35;11.83;;;4.90;;
69910;SDS011;63555;49.920;17.868;2023-02-27T16:19:36;9.13;;;3.63;;
69910;SDS011;63555;49.920;17.868;2023-02-27T16:24:41;8.15;;;3.75;;
69910;SDS011;63555;49.920;17.868;2023-02-27T16:29:43;6.07;;;2.30;;
69910;SDS011;63555;49.920;17.868;2023-02-27T16:34:44;6.88;;;3.25;;
69910;SDS011;63555;49.920;17.868;2023-02-27T16:39:45;8.17;;;3.17;;
69910;SDS011;63555;49.920;17.868;2023-02-27T16:44:45;12.20;;;4.45;;
69910;SDS011;63555;49.920;17.868;2023-02-27T16:49:46;11.63;;;4.77;;
69910;SDS011;63555;49.920;17.868;2023-02-27T16:54:48;13.10;;;3.77;;
69910;SDS011;63555;49.920;17.868;2023-02-27T16:59:48;11.47;;;5.07;;
69910;SDS011;63555;49.920;17.868;2023-02-27T17:04:49;12.47;;;4.67;;
69910;SDS011;63555;49.920;17.868;2023-02-27T17:09:51;12.80;;;4.97;;
69910;SDS011;63555;49.920;17.868;2023-02-27T17:14:51;12.10;;;4.80;;
69910;SDS011;63555;49.920;17.868;2023-02-27T17:19:51;12.50;;;5.03;;
69910;SDS011;63555;49.920;17.868;2023-02-27T17:24:53;16.60;;;5.63;;
69910;SDS011;63555;49.920;17.868;2023-02-27T17:29:54;14.17;;;6.23;;
69910;SDS011;63555;49.920;17.868;2023-02-27T17:34:54;22.27;;;7.63;;
69910;SDS011;63555;49.920;17.868;2023-02-27T17:39:55;16.40;;;6.40;;
69910;SDS011;63555;49.920;17.868;2023-02-27T17:44:55;14.87;;;6.60;;
69910;SDS011;63555;49.920;17.868;2023-02-27T17:49:56;16.83;;;6.53;;
69910;SDS011;63555;49.920;17.868;2023-02-27T17:54:56;16.57;;;5.60;;
69910;SDS011;63555;49.920;17.868;2023-02-27T17:59:56;8.07;;;2.73;;
69910;SDS011;63555;49.920;17.868;2023-02-27T18:04:57;18.13;;;5.67;;
69910;SDS011;63555;49.920;17.868;2023-02-27T18:09:57;17.33;;;5.00;;
69910;SDS011;63555;49.920;17.868;2023-02-27T18:14:58;16.50;;;5.63;;
69910;SDS011;63555;49.920;17.868;2023-02-27T18:19:59;15.85;;;6.05;;
69910;SDS011;63555;49.920;17.868;2023-02-27T18:24:59;15.93;;;6.50;;
69910;SDS011;63555;49.920;17.868;2023-02-27T18:30:00;15.17;;;6.20;;
69910;SDS011;63555;49.920;17.868;2023-02-27T18:35:01;19.80;;;5.47;;
69910;SDS011;63555;49.920;17.868;2023-02-27T18:40:02;13.23;;;4.70;;
69910;SDS011;63555;49.920;17.868;2023-02-27T18:45:04;12.20;;;5.00;;
69910;SDS011;63555;49.920;17.868;2023-02-27T18:50:05;20.33;;;6.70;;
69910;SDS011;63555;49.920;17.868;2023-02-27T18:55:06;16.92;;;6.40;;
69910;SDS011;63555;49.920;17.868;2023-02-27T19:00:07;17.70;;;6.80;;
69910;SDS011;63555;49.920;17.868;2023-02-27T19:05:09;22.30;;;7.20;;
69910;SDS011;63555;49.920;17.868;2023-02-27T19:10:11;21.33;;;5.97;;
69910;SDS011;63555;49.920;17.868;2023-02-27T19:15:12;13.95;;;5.32;;
69910;SDS011;63555;49.920;17.868;2023-02-27T19:20:12;20.97;;;6.83;;
69910;SDS011;63555;49.920;17.868;2023-02-27T19:25:15;17.83;;;6.85;;
69910;SDS011;63555;49.920;17.868;2023-02-27T19:30:15;19.73;;;6.53;;
69910;SDS011;63555;49.920;17.868;2023-02-27T19:35:16;18.25;;;6.90;;
69910;SDS011;63555;49.920;17.868;2023-02-27T19:40:18;15.63;;;6.27;;
69910;SDS011;63555;49.920;17.868;2023-02-27T19:45:21;16.60;;;6.95;;
69910;SDS011;63555;49.920;17.868;2023-02-27T19:50:22;14.98;;;6.47;;
69910;SDS011;63555;49.920;17.868;2023-02-27T19:55:22;17.58;;;6.30;;
69910;SDS011;63555;49.920;17.868;2023-02-27T20:00:23;21.20;;;8.32;;
69910;SDS011;63555;49.920;17.868;2023-02-27T20:05:23;19.38;;;7.40;;
69910;SDS011;63555;49.920;17.868;2023-02-27T20:10:24;20.23;;;7.83;;
69910;SDS011;63555;49.920;17.868;2023-02-27T20:15:24;25.13;;;8.43;;
69910;SDS011;63555;49.920;17.868;2023-02-27T20:20:24;21.00;;;7.53;;
69910;SDS011;63555;49.920;17.868;2023-02-27T20:25:25;22.10;;;7.50;;
69910;SDS011;63555;49.920;17.868;2023-02-27T20:30:25;21.40;;;7.27;;
69910;SDS011;63555;49.920;17.868;2023-02-27T20:35:25;21.00;;;8.13;;
69910;SDS011;63555;49.920;17.868;2023-02-27T20:40:26;24.67;;;9.10;;
69910;SDS011;63555;49.920;17.868;2023-02-27T20:45:27;26.90;;;8.32;;
69910;SDS011;63555;49.920;17.868;2023-02-27T20:50:28;26.33;;;8.10;;
69910;SDS011;63555;49.920;17.868;2023-02-27T20:55:28;26.00;;;8.70;;
69910;SDS011;63555;49.920;17.868;2023-02-27T21:00:28;20.07;;;7.40;;
69910;SDS011;63555;49.920;17.868;2023-02-27T21:05:29;18.80;;;6.60;;
69910;SDS011;63555;49.920;17.868;2023-02-27T21:10:30;16.70;;;6.43;;
69910;SDS011;63555;49.920;17.868;2023-02-27T21:15:33;15.47;;;7.20;;
69910;SDS011;63555;49.920;17.868;2023-02-27T21:20:34;15.35;;;5.60;;
69910;SDS011;63555;49.920;17.868;2023-02-27T21:25:41;12.03;;;4.23;;
69910;SDS011;63555;49.920;17.868;2023-02-27T21:30:43;8.87;;;4.33;;
69910;SDS011;63555;49.920;17.868;2023-02-27T21:35:44;13.30;;;4.10;;
69910;SDS011;63555;49.920;17.868;2023-02-27T21:40:45;9.02;;;3.47;;
69910;SDS011;63555;49.920;17.868;2023-02-27T21:45:46;10.23;;;3.57;;
69910;SDS011;63555;49.920;17.868;2023-02-27T21:50:50;14.37;;;4.70;;
69910;SDS011;63555;49.920;17.868;2023-02-27T21:55:50;14.27;;;4.23;;
69910;SDS011;63555;49.920;17.868;2023-02-27T22:00:54;12.77;;;4.38;;
69910;SDS011;63555;49.920;17.868;2023-02-27T22:05:55;11.87;;;5.13;;
69910;SDS011;63555;49.920;17.868;2023-02-27T22:10:58;13.50;;;5.17;;
69910;SDS011;63555;49.920;17.868;2023-02-27T22:16:07;12.60;;;4.93;;
69910;SDS011;63555;49.920;17.868;2023-02-27T22:21:12;13.73;;;6.03;;
69910;SDS011;63555;49.920;17.868;2023-02-27T22:26:20;11.38;;;5.28;;
69910;SDS011;63555;49.920;17.868;2023-02-27T22:31:24;16.00;;;6.72;;
69910;SDS011;63555;49.920;17.868;2023-02-27T22:36:30;12.23;;;4.63;;
69910;SDS011;63555;49.920;17.868;2023-02-27T22:41:35;15.48;;;5.85;;
69910;SDS011;63555;49.920;17.868;2023-02-27T22:46:38;27.30;;;8.20;;
69910;SDS011;63555;49.920;17.868;2023-02-27T22:51:41;15.32;;;6.70;;
69910;SDS011;63555;49.920;17.868;2023-02-27T22:56:41;17.37;;;6.80;;
69910;SDS011;63555;49.920;17.868;2023-02-27T23:01:42;17.93;;;6.23;;
69910;SDS011;63555;49.920;17.868;2023-02-27T23:06:43;16.77;;;6.57;;
69910;SDS011;63555;49.920;17.868;2023-02-27T23:11:44;16.20;;;6.43;;
69910;SDS011;63555;49.920;17.868;2023-02-27T23:16:45;18.75;;;6.72;;
69910;SDS011;63555;49.920;17.868;2023-02-27T23:21:46;16.77;;;6.25;;
69910;SDS011;63555;49.920;17.868;2023-02-27T23:26:48;16.67;;;7.03;;
69910;SDS011;63555;49.920;17.868;2023-02-27T23:31:50;19.60;;;6.88;;
69910;SDS011;63555;49.920;17.868;2023-02-27T23:36:50;17.70;;;7.10;;
69910;SDS011;63555;49.920;17.868;2023-02-27T23:41:51;19.77;;;6.77;;
69910;SDS011;63555;49.920;17.868;2023-02-27T23:46:51;20.53;;;7.57;;
69910;SDS011;63555;49.920;17.868;2023-02-27T23:51:54;20.37;;;8.00;;
69910;SDS011;63555;49.920;17.868;2023-02-27T23:56:54;19.00;;;7.40;;
